Time;durP1;ratioP1;P1;durP2;ratioP2;P2;SDS_P1;SDS_P2;PMS_P1;PMS_P2;Temp;Humidity;BMP_temperature;BMP_pressure;BME280_temperature;BME280_humidity;BME280_pressure;Samples;Min_cycle;Max_cycle;Signal;HPM_P1;HPM_P2
2021/05/15 00:01:18;;;;;;;11.68;10.55;;;;;;;;;;6275274;22;20335;-85
2021/05/15 00:03:44;;;;;;;10.27;9.27;;;;;;;;;;6247989;22;20433;-84
2021/05/15 00:06:10;;;;;;;12.10;10.80;;;;;;;;;;6274883;22;20705;-85
2021/05/15 00:08:36;;;;;;;12.20;11.00;;;;;;;;;;6247718;22;20342;-85
2021/05/15 00:11:02;;;;;;;12.35;10.75;;;;;;;;;;6274251;22;20342;-85
2021/05/15 00:13:28;;;;;;;11.73;10.57;;;;;;;;;;6274095;22;20373;-84
2021/05/15 00:15:54;;;;;;;12.07;10.70;;;;;;;;;;6273941;22;20334;-84
2021/05/15 00:18:20;;;;;;;12.18;10.77;;;;;;;;;;6246627;22;20346;-84
2021/05/15 00:20:46;;;;;;;12.33;10.80;;;;;;;;;;6246877;22;20426;-84
2021/05/15 00:23:12;;;;;;;11.18;10.07;;;;;;;;;;6274364;22;20341;-83
2021/05/15 00:25:38;;;;;;;11.27;10.18;;;;;;;;;;6274242;22;20331;-84
2021/05/15 00:28:04;;;;;;;11.25;10.05;;;;;;;;;;6246951;22;20700;-84
2021/05/15 00:30:30;;;;;;;13.02;11.23;;;;;;;;;;6246607;22;20339;-84
2021/05/15 00:32:57;;;;;;;12.63;10.30;;;;;;;;;;6274006;22;20355;-84
2021/05/15 00:35:23;;;;;;;13.20;11.55;;;;;;;;;;6274001;22;20631;-84
2021/05/15 00:37:49;;;;;;;12.38;10.57;;;;;;;;;;6273793;22;20418;-84
2021/05/15 00:40:15;;;;;;;11.50;9.80;;;;;;;;;;6246797;22;20823;-84
2021/05/15 00:42:41;;;;;;;13.60;9.77;;;;;;;;;;6273582;22;20429;-84
2021/05/15 00:45:09;;;;;;;13.53;9.30;;;;;;;;;;6246614;22;20339;-84
2021/05/15 00:47:35;;;;;;;10.38;9.32;;;;;;;;;;6246685;22;20847;-84
2021/05/15 00:50:01;;;;;;;12.02;10.35;;;;;;;;;;6273589;22;20343;-84
2021/05/15 00:52:33;;;;;;;10.68;9.57;;;;;;;;;;6245964;22;20378;-84
2021/05/15 00:54:59;;;;;;;12.93;11.23;;;;;;;;;;6246494;22;20347;-84
2021/05/15 00:57:26;;;;;;;13.70;12.25;;;;;;;;;;6246669;22;20985;-84
2021/05/15 00:59:52;;;;;;;12.13;10.93;;;;;;;;;;6273921;22;20334;-84
2021/05/15 01:02:18;;;;;;;12.10;10.93;;;;;;;;;;6274238;22;20335;-84
2021/05/15 01:04:44;;;;;;;12.87;10.37;;;;;;;;;;6247610;22;20831;-84
2021/05/15 01:07:11;;;;;;;12.43;10.60;;;;;;;;;;6274574;22;20327;-83
2021/05/15 01:09:37;;;;;;;12.68;10.23;;;;;;;;;;6247623;22;20405;-84
2021/05/15 01:12:07;;;;;;;11.57;10.10;;;;;;;;;;6274319;22;20388;-84
2021/05/15 01:14:33;;;;;;;12.43;10.90;;;;;;;;;;6275045;22;20422;-84
2021/05/15 01:17:00;;;;;;;11.93;10.68;;;;;;;;;;6274333;22;20327;-84
2021/05/15 01:19:26;;;;;;;12.93;9.68;;;;;;;;;;6247023;22;20354;-83
2021/05/15 01:21:52;;;;;;;10.93;9.53;;;;;;;;;;6274343;22;20394;-84
2021/05/15 01:24:18;;;;;;;11.50;10.40;;;;;;;;;;6274179;22;20335;-84
2021/05/15 01:26:44;;;;;;;12.30;10.88;;;;;;;;;;6247692;22;20345;-84
2021/05/15 01:29:10;;;;;;;11.80;10.60;;;;;;;;;;6246783;22;20813;-84
2021/05/15 01:31:38;;;;;;;14.88;12.38;;;;;;;;;;6274167;22;20358;-84
2021/05/15 01:34:04;;;;;;;13.98;11.98;;;;;;;;;;6274157;22;20365;-84
2021/05/15 01:36:34;;;;;;;15.60;12.77;;;;;;;;;;6274233;22;20368;-83
2021/05/15 01:39:00;;;;;;;13.93;12.50;;;;;;;;;;6247391;22;20358;-83
2021/05/15 01:41:26;;;;;;;11.63;10.43;;;;;;;;;;6247089;22;20347;-83
2021/05/15 01:43:57;;;;;;;13.93;11.82;;;;;;;;;;6273800;22;20350;-83
2021/05/15 01:46:23;;;;;;;12.15;10.93;;;;;;;;;;6246169;22;20425;-83
2021/05/15 01:48:49;;;;;;;14.07;11.88;;;;;;;;;;6246005;22;20378;-84
2021/05/15 01:51:14;;;;;;;14.82;10.75;;;;;;;;;;6273236;22;20338;-84
2021/05/15 01:53:41;;;;;;;11.52;10.38;;;;;;;;;;6273106;22;20651;-84
2021/05/15 01:56:09;;;;;;;13.45;12.05;;;;;;;;;;6246105;22;20426;-84
2021/05/15 01:58:36;;;;;;;12.85;10.90;;;;;;;;;;6246109;22;20339;-84
2021/05/15 02:01:02;;;;;;;12.77;9.85;;;;;;;;;;6273155;22;20793;-84
2021/05/15 02:03:29;;;;;;;11.77;9.98;;;;;;;;;;6245980;22;20393;-84
2021/05/15 02:05:55;;;;;;;11.18;9.82;;;;;;;;;;6273159;22;20370;-84
2021/05/15 02:08:22;;;;;;;13.07;10.30;;;;;;;;;;6273048;22;20662;-84
2021/05/15 02:10:49;;;;;;;11.60;9.68;;;;;;;;;;6273165;22;20389;-84
2021/05/15 02:13:15;;;;;;;11.15;9.50;;;;;;;;;;6246093;22;20370;-83
2021/05/15 02:15:41;;;;;;;10.57;9.48;;;;;;;;;;6272985;22;20425;-84
2021/05/15 02:18:08;;;;;;;10.20;9.07;;;;;;;;;;6273038;22;20382;-83
2021/05/15 02:20:34;;;;;;;10.38;9.30;;;;;;;;;;6246438;22;20335;-84
2021/05/15 02:23:00;;;;;;;11.60;10.15;;;;;;;;;;6246032;22;20821;-84
2021/05/15 02:25:27;;;;;;;10.48;9.38;;;;;;;;;;6246172;22;20346;-84
2021/05/15 02:27:53;;;;;;;12.30;9.27;;;;;;;;;;6245776;22;20370;-84
2021/05/15 02:30:20;;;;;;;10.57;9.27;;;;;;;;;;6272815;22;20341;-84
2021/05/15 02:32:46;;;;;;;13.07;9.05;;;;;;;;;;6272896;22;20366;-84
2021/05/15 02:35:13;;;;;;;9.23;8.20;;;;;;;;;;6273395;22;20343;-84
2021/05/15 02:37:39;;;;;;;9.63;8.18;;;;;;;;;;6246237;22;20843;-84
2021/05/15 02:40:05;;;;;;;9.20;7.97;;;;;;;;;;6273116;22;20342;-84
2021/05/15 02:42:31;;;;;;;10.00;9.00;;;;;;;;;;6247854;22;20763;-83
2021/05/15 02:44:57;;;;;;;9.77;7.95;;;;;;;;;;6275079;22;20354;-84
2021/05/15 02:47:23;;;;;;;9.55;8.38;;;;;;;;;;6247895;22;20396;-84
2021/05/15 02:49:50;;;;;;;10.77;8.70;;;;;;;;;;6247764;22;20339;-84
2021/05/15 02:52:16;;;;;;;9.57;8.57;;;;;;;;;;6274982;22;20823;-84
2021/05/15 02:54:42;;;;;;;10.48;8.65;;;;;;;;;;6247862;22;20771;-84
2021/05/15 02:57:08;;;;;;;11.88;8.90;;;;;;;;;;6274807;22;20365;-84
2021/05/15 02:59:35;;;;;;;11.73;8.93;;;;;;;;;;6247826;22;20381;-84
2021/05/15 03:02:01;;;;;;;10.40;8.25;;;;;;;;;;6247604;22;20350;-84
2021/05/15 03:04:27;;;;;;;9.80;8.80;;;;;;;;;;6247846;22;20347;-84
2021/05/15 03:06:53;;;;;;;10.45;8.23;;;;;;;;;;6247703;22;20445;-85
2021/05/15 03:09:19;;;;;;;10.38;8.70;;;;;;;;;;6274782;22;20347;-85
2021/05/15 03:11:45;;;;;;;9.30;8.25;;;;;;;;;;6247638;22;20350;-85
2021/05/15 03:14:11;;;;;;;10.60;8.32;;;;;;;;;;6274460;22;20339;-84
2021/05/15 03:16:37;;;;;;;9.43;8.18;;;;;;;;;;6274454;22;20339;-84
2021/05/15 03:19:04;;;;;;;9.43;8.10;;;;;;;;;;6248011;22;20934;-84
2021/05/15 03:21:30;;;;;;;8.98;8.07;;;;;;;;;;6274688;22;20349;-84
2021/05/15 03:23:56;;;;;;;9.97;8.47;;;;;;;;;;6247550;22;20402;-84
2021/05/15 03:26:22;;;;;;;10.25;8.20;;;;;;;;;;6247332;22;20346;-84
2021/05/15 03:28:48;;;;;;;9.75;8.20;;;;;;;;;;6274433;22;20647;-84
2021/05/15 03:31:14;;;;;;;9.93;7.95;;;;;;;;;;6247347;22;20354;-84
2021/05/15 03:33:40;;;;;;;10.90;7.83;;;;;;;;;;6247399;22;20467;-84
2021/05/15 03:36:06;;;;;;;9.23;8.37;;;;;;;;;;6247460;22;20342;-84
2021/05/15 03:38:32;;;;;;;11.75;8.75;;;;;;;;;;6274595;22;20366;-84
2021/05/15 03:40:58;;;;;;;10.63;8.98;;;;;;;;;;6274287;22;20342;-84
2021/05/15 03:43:24;;;;;;;11.60;10.20;;;;;;;;;;6274447;22;20414;-84
2021/05/15 03:45:53;;;;;;;12.82;9.75;;;;;;;;;;6246897;22;20370;-84
2021/05/15 03:48:20;;;;;;;10.90;9.02;;;;;;;;;;6274273;22;20712;-84
2021/05/15 03:50:49;;;;;;;10.77;9.18;;;;;;;;;;6274541;22;20358;-84
2021/05/15 03:53:15;;;;;;;11.07;8.73;;;;;;;;;;6246773;22;20374;-85
2021/05/15 03:55:41;;;;;;;13.55;8.50;;;;;;;;;;6274300;22;20680;-84
2021/05/15 03:58:07;;;;;;;11.20;8.48;;;;;;;;;;6274341;22;20642;-84
2021/05/15 04:00:33;;;;;;;12.60;7.95;;;;;;;;;;6247153;22;20469;-84
2021/05/15 04:02:59;;;;;;;11.80;8.33;;;;;;;;;;6246956;22;20350;-84
2021/05/15 04:05:25;;;;;;;8.98;8.07;;;;;;;;;;6274110;22;20727;-84
2021/05/15 04:07:51;;;;;;;8.73;7.82;;;;;;;;;;6274103;22;20374;-83
2021/05/15 04:10:17;;;;;;;8.38;7.28;;;;;;;;;;6274949;22;20704;-84
2021/05/15 04:18:20;;;;;;;8.20;7.50;;;;;;;;;;6284578;22;20727;-84
2021/05/15 04:20:46;;;;;;;7.90;7.13;;;;;;;;;;6247248;22;20373;-85
2021/05/15 04:23:13;;;;;;;9.20;7.45;;;;;;;;;;6274333;22;20330;-85
2021/05/15 04:25:39;;;;;;;8.25;7.38;;;;;;;;;;6247053;22;20346;-84
2021/05/15 04:28:06;;;;;;;7.53;6.82;;;;;;;;;;6274560;22;20381;-85
2021/05/15 04:30:32;;;;;;;8.20;7.40;;;;;;;;;;6247037;22;20355;-85
2021/05/15 04:33:00;;;;;;;8.13;6.80;;;;;;;;;;6247000;22;20428;-84
2021/05/15 04:35:26;;;;;;;18.92;8.82;;;;;;;;;;6274410;22;20375;-85
2021/05/15 04:37:52;;;;;;;7.73;6.47;;;;;;;;;;6273907;22;20342;-85
2021/05/15 04:40:18;;;;;;;8.00;6.47;;;;;;;;;;6246583;22;20351;-84
2021/05/15 04:42:44;;;;;;;8.85;5.97;;;;;;;;;;6273960;22;20335;-85
2021/05/15 04:45:11;;;;;;;7.20;6.25;;;;;;;;;;6273941;22;20429;-84
2021/05/15 04:47:38;;;;;;;6.40;5.78;;;;;;;;;;6246730;22;20343;-85
2021/05/15 04:50:04;;;;;;;8.00;6.28;;;;;;;;;;6246401;22;20346;-85
2021/05/15 04:52:30;;;;;;;7.00;6.35;;;;;;;;;;6246302;22;20367;-85
2021/05/15 04:54:56;;;;;;;7.07;6.38;;;;;;;;;;6246707;22;20386;-85
2021/05/15 04:57:22;;;;;;;6.45;5.63;;;;;;;;;;6273733;22;20346;-85
2021/05/15 04:59:48;;;;;;;6.57;5.80;;;;;;;;;;6273889;22;20813;-85
2021/05/15 05:02:14;;;;;;;6.13;5.53;;;;;;;;;;6246883;22;20373;-85
2021/05/15 05:04:40;;;;;;;6.70;5.40;;;;;;;;;;6246497;22;20343;-85
2021/05/15 05:07:06;;;;;;;5.80;5.30;;;;;;;;;;6273706;22;20323;-84
2021/05/15 05:09:32;;;;;;;6.20;5.20;;;;;;;;;;6246752;22;20389;-85
2021/05/15 05:11:58;;;;;;;5.85;5.28;;;;;;;;;;6273551;22;20355;-85
2021/05/15 05:14:25;;;;;;;5.68;5.18;;;;;;;;;;6246534;22;20335;-85
2021/05/15 05:16:54;;;;;;;5.57;5.07;;;;;;;;;;6246314;22;20346;-85
2021/05/15 05:19:21;;;;;;;5.40;4.90;;;;;;;;;;6246482;22;20426;-84
2021/05/15 05:21:47;;;;;;;5.32;4.82;;;;;;;;;;6273987;22;20814;-84
2021/05/15 05:24:13;;;;;;;6.15;4.90;;;;;;;;;;6274082;22;20346;-84
2021/05/15 05:26:39;;;;;;;5.15;4.70;;;;;;;;;;6247158;22;20639;-84
2021/05/15 05:29:09;;;;;;;5.20;4.50;;;;;;;;;;6274237;22;20335;-84
2021/05/15 05:31:44;;;;;;;5.25;4.75;;;;;;;;;;6273948;22;20351;-84
2021/05/15 05:34:10;;;;;;;4.95;4.30;;;;;;;;;;6274231;22;20796;-84
2021/05/15 05:36:36;;;;;;;7.18;4.90;;;;;;;;;;6274248;22;20339;-84
2021/05/15 05:39:04;;;;;;;5.78;5.05;;;;;;;;;;6246911;22;20406;-84
2021/05/15 05:41:30;;;;;;;5.38;4.93;;;;;;;;;;6247193;22;20850;-85
2021/05/15 05:43:56;;;;;;;5.38;4.88;;;;;;;;;;6247047;22;20669;-84
2021/05/15 05:46:22;;;;;;;4.63;4.20;;;;;;;;;;6247141;22;20335;-84
2021/05/15 05:48:48;;;;;;;5.30;4.70;;;;;;;;;;6273853;22;20335;-84
2021/05/15 05:51:14;;;;;;;5.22;4.72;;;;;;;;;;6274112;22;20342;-85
2021/05/15 05:53:40;;;;;;;6.25;5.30;;;;;;;;;;6247140;22;20378;-85
2021/05/15 05:56:07;;;;;;;5.68;4.78;;;;;;;;;;6247258;22;20409;-85
2021/05/15 05:58:33;;;;;;;5.82;5.25;;;;;;;;;;6247288;22;20343;-85
2021/05/15 06:00:59;;;;;;;6.20;5.45;;;;;;;;;;6274248;22;20413;-85
2021/05/15 06:03:25;;;;;;;6.13;5.47;;;;;;;;;;6274356;22;20335;-85
2021/05/15 06:05:51;;;;;;;5.67;5.17;;;;;;;;;;6246525;22;20362;-85
2021/05/15 06:08:18;;;;;;;6.73;6.03;;;;;;;;;;6247011;22;20343;-85
2021/05/15 06:10:44;;;;;;;5.60;5.10;;;;;;;;;;6274593;22;20366;-85
2021/05/15 06:13:10;;;;;;;5.88;4.97;;;;;;;;;;6274068;22;20809;-85
2021/05/15 06:15:37;;;;;;;6.57;4.90;;;;;;;;;;6274150;22;20374;-85
2021/05/15 06:18:04;;;;;;;6.00;4.78;;;;;;;;;;6273927;22;20800;-85
2021/05/15 06:20:30;;;;;;;7.28;5.40;;;;;;;;;;6273248;22;20338;-85
2021/05/15 06:22:56;;;;;;;6.15;4.93;;;;;;;;;;6273984;22;20319;-85
2021/05/15 06:25:22;;;;;;;7.10;4.32;;;;;;;;;;6246159;22;20472;-85
2021/05/15 06:27:48;;;;;;;5.38;4.88;;;;;;;;;;6245804;22;20433;-85
2021/05/15 06:30:15;;;;;;;5.25;4.55;;;;;;;;;;6273036;22;20388;-85
2021/05/15 06:32:41;;;;;;;5.80;4.82;;;;;;;;;;6273320;22;20363;-86
2021/05/15 06:35:08;;;;;;;5.63;4.47;;;;;;;;;;6273562;22;20365;-85
2021/05/15 06:37:34;;;;;;;6.35;4.68;;;;;;;;;;6246649;22;20345;-85
2021/05/15 06:40:00;;;;;;;6.05;4.90;;;;;;;;;;6273803;22;20342;-86
2021/05/15 06:42:26;;;;;;;7.28;4.82;;;;;;;;;;6273839;22;20366;-85
2021/05/15 06:44:52;;;;;;;8.52;6.57;;;;;;;;;;6246479;22;20869;-85
2021/05/15 06:47:19;;;;;;;10.10;7.63;;;;;;;;;;6271719;22;20843;-85
2021/05/15 06:49:45;;;;;;;9.10;8.20;;;;;;;;;;6271948;22;20330;-86
2021/05/15 06:52:11;;;;;;;5.28;4.78;;;;;;;;;;6273774;22;20424;-86
2021/05/15 06:54:38;;;;;;;4.95;4.47;;;;;;;;;;6245729;22;20704;-86
2021/05/15 06:57:06;;;;;;;6.72;5.28;;;;;;;;;;6245945;22;20403;-85
2021/05/15 06:59:32;;;;;;;5.60;4.97;;;;;;;;;;6246462;22;20393;-86
2021/05/15 07:01:58;;;;;;;5.80;4.53;;;;;;;;;;6273413;22;20335;-85
2021/05/15 07:04:25;;;;;;;5.63;4.65;;;;;;;;;;6246401;22;20338;-85
2021/05/15 07:06:51;;;;;;;5.65;4.80;;;;;;;;;;6246032;22;21089;-86
2021/05/15 07:09:17;;;;;;;6.40;5.18;;;;;;;;;;6246501;22;20343;-84
2021/05/15 07:11:43;;;;;;;7.32;5.47;;;;;;;;;;6273669;22;20775;-85
2021/05/15 07:14:09;;;;;;;6.95;4.35;;;;;;;;;;6273148;22;20375;-85
2021/05/15 07:16:35;;;;;;;5.47;4.60;;;;;;;;;;6246017;22;20825;-85
2021/05/15 07:19:00;;;;;;;8.73;5.60;;;;;;;;;;6246597;22;20438;-84
2021/05/15 07:21:27;;;;;;;7.13;6.28;;;;;;;;;;6273884;22;20335;-84
2021/05/15 07:23:52;;;;;;;10.90;6.78;;;;;;;;;;6274014;22;20801;-88
2021/05/15 07:26:18;;;;;;;8.00;7.20;;;;;;;;;;6247548;22;20373;-86
2021/05/15 07:28:45;;;;;;;8.90;8.00;;;;;;;;;;6284894;22;20335;-85
2021/05/15 07:31:11;;;;;;;9.20;8.20;;;;;;;;;;6283528;22;20377;-83
2021/05/15 07:33:37;;;;;;;9.45;8.52;;;;;;;;;;6256559;22;20366;-85
2021/05/15 07:36:03;;;;;;;8.77;7.85;;;;;;;;;;6285526;22;20338;-84
2021/05/15 07:38:29;;;;;;;9.68;8.68;;;;;;;;;;6258107;22;20357;-86
2021/05/15 07:40:55;;;;;;;10.50;9.43;;;;;;;;;;6279321;22;20338;-85
2021/05/15 07:43:26;;;;;;;10.50;9.43;;;;;;;;;;6275279;22;20723;-83
2021/05/15 07:45:52;;;;;;;9.80;8.90;;;;;;;;;;6275146;22;20443;-84
2021/05/15 07:48:28;;;;;;;9.85;8.88;;;;;;;;;;6247649;22;20339;-86
2021/05/15 07:50:54;;;;;;;10.77;9.50;;;;;;;;;;6248168;22;20370;-85
2021/05/15 07:53:21;;;;;;;11.70;9.32;;;;;;;;;;6247118;22;20727;-86
2021/05/15 07:55:49;;;;;;;10.93;9.73;;;;;;;;;;6247658;22;20831;-85
2021/05/15 07:58:15;;;;;;;12.23;9.13;;;;;;;;;;6247283;22;20350;-84
2021/05/15 08:00:41;;;;;;;12.30;8.90;;;;;;;;;;6247389;22;20338;-84
2021/05/15 08:03:07;;;;;;;9.70;8.80;;;;;;;;;;6248357;22;20341;-86
2021/05/15 08:05:33;;;;;;;10.73;9.63;;;;;;;;;;6248430;22;20342;-85
2021/05/15 08:08:00;;;;;;;10.87;9.80;;;;;;;;;;6275230;22;20358;-86
2021/05/15 08:10:26;;;;;;;10.23;9.13;;;;;;;;;;6247941;22;20355;-84
2021/05/15 08:12:52;;;;;;;10.45;8.43;;;;;;;;;;6254030;22;20441;-85
2021/05/15 08:15:18;;;;;;;11.10;9.90;;;;;;;;;;6260813;22;20353;-85
2021/05/15 08:17:44;;;;;;;10.37;9.47;;;;;;;;;;6285692;22;20362;-83
2021/05/15 08:20:10;;;;;;;11.37;10.00;;;;;;;;;;6283782;22;20815;-87
2021/05/15 08:22:36;;;;;;;10.10;9.10;;;;;;;;;;6252755;22;20354;-86
2021/05/15 08:25:03;;;;;;;11.27;9.00;;;;;;;;;;6256742;22;20343;-84
2021/05/15 08:27:29;;;;;;;10.97;9.90;;;;;;;;;;6253672;22;20342;-83
2021/05/15 08:29:56;;;;;;;13.30;10.50;;;;;;;;;;6279286;22;20346;-85
2021/05/15 08:32:21;;;;;;;10.93;9.90;;;;;;;;;;6278636;22;20367;-83
2021/05/15 08:34:47;;;;;;;11.85;10.70;;;;;;;;;;6275982;22;20353;-84
2021/05/15 08:37:13;;;;;;;12.63;11.43;;;;;;;;;;6281781;22;20339;-84
2021/05/15 08:39:39;;;;;;;11.18;10.18;;;;;;;;;;6282532;22;20385;-83
2021/05/15 08:42:05;;;;;;;12.13;10.32;;;;;;;;;;6247994;22;20370;-84
2021/05/15 08:44:35;;;;;;;11.03;9.93;;;;;;;;;;6247532;22;20353;-85
2021/05/15 08:47:01;;;;;;;10.60;9.60;;;;;;;;;;6247065;22;20342;-87
2021/05/15 08:49:27;;;;;;;11.93;10.82;;;;;;;;;;6273344;22;20339;-85
2021/05/15 08:51:53;;;;;;;10.40;9.50;;;;;;;;;;6246386;22;20449;-85
2021/05/15 08:54:22;;;;;;;10.40;9.30;;;;;;;;;;6273714;22;20385;-88
2021/05/15 08:56:50;;;;;;;11.30;10.25;;;;;;;;;;6247822;22;20350;-87
2021/05/15 08:59:16;;;;;;;9.52;8.63;;;;;;;;;;6274075;22;20335;-87
2021/05/15 09:01:45;;;;;;;10.13;9.02;;;;;;;;;;6246475;22;20347;-86
2021/05/15 09:04:12;;;;;;;10.80;9.70;;;;;;;;;;6246101;22;20433;-84
2021/05/15 09:06:41;;;;;;;10.93;9.50;;;;;;;;;;6273076;22;20358;-83
2021/05/15 09:09:07;;;;;;;10.93;9.77;;;;;;;;;;6243169;22;20430;-85
2021/05/15 09:11:33;;;;;;;11.45;10.20;;;;;;;;;;6270430;22;20642;-84
2021/05/15 09:14:00;;;;;;;19.30;12.77;;;;;;;;;;6242567;22;20768;-85
2021/05/15 09:16:26;;;;;;;12.13;10.87;;;;;;;;;;6269838;22;20347;-85
2021/05/15 09:18:52;;;;;;;17.60;12.32;;;;;;;;;;6270043;22;20338;-85
2021/05/15 09:21:20;;;;;;;13.10;11.53;;;;;;;;;;6270040;22;20322;-86
2021/05/15 09:23:46;;;;;;;10.13;9.18;;;;;;;;;;6242718;22;20378;-85
2021/05/15 09:26:24;;;;;;;10.23;9.32;;;;;;;;;;6242837;22;20342;-85
2021/05/15 09:28:50;;;;;;;10.48;9.40;;;;;;;;;;6242377;22;20350;-85
2021/05/15 09:31:22;;;;;;;10.00;8.95;;;;;;;;;;6269939;22;20357;-85
2021/05/15 09:33:50;;;;;;;9.90;8.73;;;;;;;;;;6269362;22;20409;-86
2021/05/15 09:36:17;;;;;;;9.18;8.25;;;;;;;;;;6241964;22;20350;-85
2021/05/15 09:38:43;;;;;;;10.38;8.98;;;;;;;;;;6269579;22;20331;-85
2021/05/15 09:41:10;;;;;;;9.95;8.95;;;;;;;;;;6269256;22;20338;-85
2021/05/15 09:43:36;;;;;;;10.90;9.00;;;;;;;;;;6269484;22;21391;-85
2021/05/15 09:46:02;;;;;;;9.77;8.77;;;;;;;;;;6269232;22;20342;-85
2021/05/15 09:48:37;;;;;;;8.57;7.77;;;;;;;;;;6242457;22;20346;-85
2021/05/15 09:51:17;;;;;;;10.40;8.68;;;;;;;;;;6269124;22;20408;-85
2021/05/15 09:53:43;;;;;;;9.30;8.40;;;;;;;;;;6241816;22;20768;-86
2021/05/15 09:56:09;;;;;;;8.55;7.75;;;;;;;;;;6269830;22;20363;-86
2021/05/15 09:58:36;;;;;;;9.70;8.80;;;;;;;;;;6269531;22;20335;-86
2021/05/15 10:01:02;;;;;;;10.13;9.02;;;;;;;;;;6242771;22;20385;-86
2021/05/15 10:03:33;;;;;;;13.55;8.93;;;;;;;;;;6269420;22;20339;-85
2021/05/15 10:06:08;;;;;;;9.23;8.32;;;;;;;;;;6242899;22;20384;-86
2021/05/15 10:08:35;;;;;;;8.63;7.82;;;;;;;;;;6242003;22;20389;-85
2021/05/15 10:11:05;;;;;;;8.48;7.70;;;;;;;;;;6242277;22;20712;-86
2021/05/15 10:13:32;;;;;;;8.90;8.00;;;;;;;;;;6245153;22;20841;-87
2021/05/15 10:15:58;;;;;;;8.75;7.20;;;;;;;;;;6272981;22;20342;-86
2021/05/15 10:18:24;;;;;;;8.20;7.18;;;;;;;;;;6245636;22;20445;-86
2021/05/15 10:20:50;;;;;;;8.85;8.05;;;;;;;;;;6271866;22;20399;-86
2021/05/15 10:23:23;;;;;;;8.32;7.32;;;;;;;;;;6245017;22;20396;-85
2021/05/15 10:25:50;;;;;;;7.07;6.20;;;;;;;;;;6245544;22;20343;-83
2021/05/15 10:28:35;;;;;;;6.90;6.27;;;;;;;;;;6271417;22;20331;-85
2021/05/15 10:31:09;;;;;;;7.60;6.60;;;;;;;;;;6244802;22;20363;-84
2021/05/15 10:33:35;;;;;;;7.05;6.45;;;;;;;;;;6243638;22;20374;-85
2021/05/15 10:36:05;;;;;;;7.85;6.53;;;;;;;;;;6271482;22;20339;-86
2021/05/15 10:38:32;;;;;;;6.68;6.03;;;;;;;;;;6271988;22;20428;-86
2021/05/15 10:41:08;;;;;;;7.10;6.50;;;;;;;;;;6272235;22;20338;-88
2021/05/15 10:43:35;;;;;;;6.80;5.30;;;;;;;;;;6245145;22;20877;-87
2021/05/15 10:46:13;;;;;;;8.35;6.40;;;;;;;;;;6245425;22;20352;-87
2021/05/15 10:48:39;;;;;;;6.55;5.95;;;;;;;;;;6272512;22;20334;-82
2021/05/15 10:51:06;;;;;;;6.05;5.45;;;;;;;;;;6273010;22;20369;-83
2021/05/15 10:53:33;;;;;;;6.63;6.03;;;;;;;;;;6244328;22;20370;-81
2021/05/15 10:56:02;;;;;;;8.13;6.80;;;;;;;;;;6244296;22;20422;-84
2021/05/15 10:58:47;;;;;;;6.60;6.03;;;;;;;;;;6244540;22;20351;-88
2021/05/15 11:01:14;;;;;;;8.65;6.82;;;;;;;;;;6272175;22;20347;-86
2021/05/15 11:03:40;;;;;;;8.52;6.80;;;;;;;;;;6273806;22;20366;-83
2021/05/15 11:06:17;;;;;;;9.60;6.75;;;;;;;;;;6274285;22;20370;-84
2021/05/15 11:08:43;;;;;;;8.02;7.15;;;;;;;;;;6273701;22;20827;-82
2021/05/15 11:11:11;;;;;;;8.88;7.72;;;;;;;;;;6274006;22;20805;-84
2021/05/15 11:13:50;;;;;;;10.25;5.90;;;;;;;;;;6247006;22;20776;-80
2021/05/15 11:16:30;;;;;;;4.97;3.75;;;;;;;;;;6274647;22;20417;-85
2021/05/15 11:19:05;;;;;;;7.05;4.82;;;;;;;;;;6273698;22;20339;-84
2021/05/15 11:21:34;;;;;;;6.85;4.97;;;;;;;;;;6274089;22;20343;-82
2021/05/15 11:24:00;;;;;;;4.13;3.73;;;;;;;;;;6273071;22;20749;-83
2021/05/15 11:26:35;;;;;;;6.53;3.67;;;;;;;;;;6273943;22;20362;-87
2021/05/15 11:29:05;;;;;;;5.00;3.08;;;;;;;;;;6273734;22;20400;-84
2021/05/15 11:31:37;;;;;;;3.45;2.55;;;;;;;;;;6273978;22;20350;-81
2021/05/15 11:34:11;;;;;;;5.60;2.78;;;;;;;;;;6247421;22;20362;-82
2021/05/15 11:36:40;;;;;;;5.07;2.60;;;;;;;;;;6274605;22;20390;-83
2021/05/15 11:39:06;;;;;;;3.78;2.03;;;;;;;;;;6247240;22;20349;-84
2021/05/15 11:41:32;;;;;;;2.30;1.73;;;;;;;;;;6274302;22;20776;-86
2021/05/15 11:44:00;;;;;;;3.20;2.03;;;;;;;;;;6274447;22;20339;-82
2021/05/15 11:46:26;;;;;;;2.77;1.70;;;;;;;;;;6247157;22;20429;-84
2021/05/15 11:48:52;;;;;;;1.98;1.60;;;;;;;;;;6247059;22;20374;-86
2021/05/15 11:51:19;;;;;;;1.48;1.10;;;;;;;;;;6274074;22;20388;-83
2021/05/15 11:53:46;;;;;;;2.43;1.33;;;;;;;;;;6246413;22;20366;-84
2021/05/15 11:56:13;;;;;;;1.85;1.02;;;;;;;;;;6273978;22;20345;-86
2021/05/15 11:59:03;;;;;;;1.70;1.23;;;;;;;;;;6274200;22;20683;-84
2021/05/15 12:01:31;;;;;;;1.00;1.00;;;;;;;;;;6273883;22;20855;-83
2021/05/15 12:04:06;;;;;;;2.17;1.27;;;;;;;;;;6246552;22;20334;-84
2021/05/15 12:06:33;;;;;;;2.13;1.30;;;;;;;;;;6273528;22;20349;-85
2021/05/15 12:08:59;;;;;;;3.22;1.50;;;;;;;;;;6273718;22;20327;-84
2021/05/15 12:11:26;;;;;;;3.08;1.35;;;;;;;;;;6245883;22;20867;-85
2021/05/15 12:13:53;;;;;;;1.83;1.40;;;;;;;;;;6272537;22;20371;-83
2021/05/15 12:16:22;;;;;;;3.03;1.00;;;;;;;;;;6272791;22;20331;-84
2021/05/15 12:18:48;;;;;;;2.08;1.10;;;;;;;;;;6273083;22;20338;-83
2021/05/15 12:21:15;;;;;;;3.83;1.15;;;;;;;;;;6273559;22;20385;-83
2021/05/15 12:23:42;;;;;;;4.00;1.20;;;;;;;;;;6245511;22;20421;-83
2021/05/15 12:26:09;;;;;;;3.20;1.33;;;;;;;;;;6245941;22;20349;-84
2021/05/15 12:28:49;;;;;;;2.47;1.02;;;;;;;;;;6273148;22;20335;-85
2021/05/15 12:31:22;;;;;;;2.80;1.00;;;;;;;;;;6245948;22;20351;-84
2021/05/15 12:33:49;;;;;;;2.15;0.93;;;;;;;;;;6246061;22;20457;-84
2021/05/15 12:36:15;;;;;;;2.35;1.23;;;;;;;;;;6273420;22;20700;-85
2021/05/15 12:38:48;;;;;;;2.58;1.00;;;;;;;;;;6273458;22;20835;-85
2021/05/15 12:41:15;;;;;;;5.47;1.17;;;;;;;;;;6272916;22;20418;-85
2021/05/15 12:43:43;;;;;;;3.35;1.13;;;;;;;;;;6272514;22;20341;-85
2021/05/15 12:46:10;;;;;;;1.63;1.20;;;;;;;;;;6273410;22;20353;-86
2021/05/15 12:48:39;;;;;;;4.13;1.10;;;;;;;;;;6273217;22;20831;-85
2021/05/15 12:51:06;;;;;;;2.70;1.30;;;;;;;;;;6246109;22;20778;-85
2021/05/15 12:53:32;;;;;;;4.35;1.05;;;;;;;;;;6245011;22;20392;-86
2021/05/15 12:55:59;;;;;;;3.33;1.35;;;;;;;;;;6240865;22;20349;-86
2021/05/15 12:58:26;;;;;;;4.38;1.27;;;;;;;;;;6242460;22;20359;-84
2021/05/15 13:00:57;;;;;;;2.53;0.98;;;;;;;;;;6269208;22;20979;-83
2021/05/15 13:03:23;;;;;;;2.30;0.90;;;;;;;;;;6268846;22;20361;-84
2021/05/15 13:05:49;;;;;;;2.17;1.00;;;;;;;;;;6271139;22;20327;-84
2021/05/15 13:08:17;;;;;;;1.90;0.80;;;;;;;;;;6243351;22;20347;-85
2021/05/15 13:10:43;;;;;;;1.95;1.00;;;;;;;;;;6242900;22;20408;-86
2021/05/15 13:13:11;;;;;;;1.45;0.90;;;;;;;;;;6242803;22;20744;-85
2021/05/15 13:15:39;;;;;;;1.33;0.80;;;;;;;;;;6242362;22;20350;-83
2021/05/15 13:18:14;;;;;;;3.40;1.00;;;;;;;;;;6242721;22;21132;-86
2021/05/15 13:20:40;;;;;;;1.83;0.85;;;;;;;;;;6270566;22;20330;-86
2021/05/15 13:23:06;;;;;;;4.38;0.88;;;;;;;;;;6270366;22;20811;-85
2021/05/15 13:25:32;;;;;;;1.65;0.70;;;;;;;;;;6270457;22;20369;-85
2021/05/15 13:27:58;;;;;;;0.80;0.52;;;;;;;;;;6241974;22;20339;-84
2021/05/15 13:30:24;;;;;;;0.80;0.55;;;;;;;;;;6240909;22;20351;-83
2021/05/15 13:32:50;;;;;;;1.00;0.45;;;;;;;;;;6235642;22;20394;-85
2021/05/15 13:35:16;;;;;;;1.63;0.70;;;;;;;;;;6239983;22;20350;-83
2021/05/15 13:37:42;;;;;;;1.48;0.63;;;;;;;;;;6269596;22;20815;-84
2021/05/15 13:40:08;;;;;;;2.67;0.57;;;;;;;;;;6269727;22;20350;-84
2021/05/15 13:42:34;;;;;;;1.80;0.60;;;;;;;;;;6242071;22;20353;-82
2021/05/15 13:45:00;;;;;;;1.35;0.70;;;;;;;;;;6242990;22;20371;-85
2021/05/15 13:47:26;;;;;;;1.60;0.50;;;;;;;;;;6243110;22;20354;-84
2021/05/15 13:49:52;;;;;;;0.93;0.65;;;;;;;;;;6269727;22;20891;-83
2021/05/15 13:52:18;;;;;;;1.02;0.52;;;;;;;;;;6270117;22;20476;-84
2021/05/15 13:54:44;;;;;;;0.60;0.57;;;;;;;;;;6242308;22;20382;-86
2021/05/15 13:57:10;;;;;;;1.27;0.70;;;;;;;;;;6269531;22;20343;-85
2021/05/15 13:59:36;;;;;;;1.20;0.50;;;;;;;;;;6242786;22;20801;-83
2021/05/15 14:02:02;;;;;;;1.80;0.63;;;;;;;;;;6269783;22;20712;-85
2021/05/15 14:04:29;;;;;;;2.47;0.60;;;;;;;;;;6243163;22;20400;-86
2021/05/15 14:06:54;;;;;;;0.75;0.50;;;;;;;;;;6270156;22;20323;-89
2021/05/15 14:09:20;;;;;;;2.13;0.80;;;;;;;;;;6274273;22;20432;-85
2021/05/15 14:11:46;;;;;;;0.90;0.70;;;;;;;;;;6253930;22;20437;-84
2021/05/15 14:14:12;;;;;;;1.40;0.80;;;;;;;;;;6280468;22;20397;-83
2021/05/15 14:16:38;;;;;;;2.45;0.80;;;;;;;;;;6253466;22;20343;-83
2021/05/15 14:19:05;;;;;;;3.42;0.77;;;;;;;;;;6247763;22;20404;-83
2021/05/15 14:21:31;;;;;;;1.80;0.70;;;;;;;;;;6243572;22;20811;-83
2021/05/15 14:23:57;;;;;;;1.17;0.60;;;;;;;;;;6271267;22;20430;-85
2021/05/15 14:26:23;;;;;;;4.57;1.20;;;;;;;;;;6270062;22;20350;-83
2021/05/15 14:28:51;;;;;;;0.90;0.60;;;;;;;;;;6268419;22;20390;-83
2021/05/15 14:31:17;;;;;;;2.15;0.70;;;;;;;;;;6270464;22;20343;-84
2021/05/15 14:33:43;;;;;;;1.52;0.70;;;;;;;;;;6269738;22;20371;-84
2021/05/15 14:36:09;;;;;;;1.95;0.65;;;;;;;;;;6242285;22;20630;-84
2021/05/15 14:38:35;;;;;;;1.90;0.70;;;;;;;;;;6272131;22;20350;-87
2021/05/15 14:41:01;;;;;;;0.80;0.60;;;;;;;;;;6241480;22;20411;-85